ポートオブスペイン の空港の天気 - METARとTAF

ピアルコ国際空港(ポートオブスペイン) ( TTPP / POS ) - トリニダード・トバゴ ポートオブスペイン (トリニダード島)
飛行場実況気象(Metar)
観測時間07/28 22:00 AST (07/29 02:00 UTC)
風向・風速東南東 2m/s
視程10km以上
天気現象
少しの雲 雲底高度 490m
全天の8割程度の雲 雲底高度 1100m
気温25℃
湿度94%
気圧1015hPa
METARTTPP 290200Z 12003KT 9999 FEW016 BKN036 25/24 Q1015 NOSIG
過去の天気等 Google飛行場航空写真 Wunderground天気予報

過去48時間のMETAR

飛行場予報(TAF)
発表時間: 7/28 18:00 AST (7/28 22:00 UTC)
予報対象時間: 28日20時 AST ~ 29日20時 AST
風向・風速静穏
視程10km以上
天気現象周辺でしゅう雨
全天の4割程度の雲 雲底高度 550m
29日2時 AST ~ 29日14時 AST に一時的に
視程5000m
天気現象しゅう雨
全天の8割程度の雲 雲底高度 460m
29日8時 AST ~ 29日10時 AST に徐々に
風向・風速南東 5m/s
29日10時 AST ~ 29日14時 AST に 確率 40% で一時的に
視程2000m
天気現象雷雨
全天の4割程度の積乱雲 雲底高度 370m
TAF TTPP 282200Z 2900/2924 00000KT 9999 VCSH SCT018
TEMPO 2906/2918 5000 SHRA BKN015
BECMG 2912/2914 13010KT
PROB40 TEMPO 2914/2918 2000 TSRA SCT012CB